createdAt,value
2022-11-01T00:02:02.240Z,98984.31
2022-11-01T00:04:29.063Z,98993.41
2022-11-01T00:06:55.870Z,98993.03
2022-11-01T00:09:22.540Z,98998.13
2022-11-01T00:11:49.306Z,98990.22
2022-11-01T00:14:18.101Z,98990.59
2022-11-01T00:16:44.968Z,98983.09
2022-11-01T00:19:12.465Z,98986.19
2022-11-01T00:21:39.138Z,98988.56
2022-11-01T00:24:06.256Z,98997.28
2022-11-01T00:26:32.999Z,99000.81
2022-11-01T00:28:59.731Z,99008.31
2022-11-01T00:31:26.503Z,99008.72
2022-11-01T00:33:53.173Z,99006.34
2022-11-01T00:36:19.804Z,99006.72
2022-11-01T00:38:50.574Z,99006.72
2022-11-01T00:41:19.434Z,99002.38
2022-11-01T00:43:46.356Z,99000.38
2022-11-01T00:46:12.992Z,99005.91
2022-11-01T00:48:39.662Z,99015.38
2022-11-01T00:51:06.311Z,99020.53
2022-11-01T00:53:32.934Z,99016.56
2022-11-01T00:56:01.549Z,99012.97
2022-11-01T00:58:28.257Z,99021.28
2022-11-01T01:00:55.173Z,99029.19
2022-11-01T01:03:22.266Z,99029.19
2022-11-01T01:05:50.004Z,99029.19
2022-11-01T01:08:16.914Z,99030.75
2022-11-01T01:10:45.062Z,99029.56
2022-11-01T01:13:11.686Z,99014.88
2022-11-01T01:15:39.613Z,99015.25
2022-11-01T01:18:06.456Z,99014.03
2022-11-01T01:20:33.842Z,99012.38
2022-11-01T01:23:00.557Z,99008.81
2022-11-01T01:25:27.548Z,99014.31
2022-11-01T01:27:55.878Z,99007.94
2022-11-01T01:30:22.653Z,99003.91
2022-11-01T01:32:49.334Z,99007.81
2022-11-01T01:35:16.158Z,99011.34
2022-11-01T01:37:42.833Z,99003.81
2022-11-01T01:40:09.982Z,99014.03
2022-11-01T01:42:41.027Z,99010.47
2022-11-01T01:45:15.520Z,99012.84
2022-11-01T01:47:45.625Z,99007.25
2022-11-01T01:50:13.887Z,98985.53
2022-11-01T01:52:47.952Z,98983.53
2022-11-01T01:55:19.030Z,98978.78
2022-11-01T01:57:46.407Z,98966.47
2022-11-01T02:00:13.553Z,98970.00
2022-11-01T02:02:42.166Z,98977.06
2022-11-01T02:05:20.493Z,98975.44
2022-11-01T02:07:47.644Z,98984.06
2022-11-01T02:10:15.751Z,98973.78
2022-11-01T02:12:47.837Z,98971.81
2022-11-01T02:15:16.385Z,98976.19
2022-11-01T02:18:04.446Z,98967.47
2022-11-01T02:21:09.269Z,98970.56
2022-11-01T02:24:09.318Z,98973.28
2022-11-01T02:27:14.205Z,98973.63
2022-11-01T02:30:14.324Z,98972.78
2022-11-01T02:33:04.021Z,98968.81
2022-11-01T02:35:54.845Z,98968.00
2022-11-01T02:38:28.305Z,98978.22
2022-11-01T02:41:03.696Z,98969.53
2022-11-01T02:43:39.865Z,98976.22
2022-11-01T02:46:41.989Z,98972.66
2022-11-01T02:49:13.064Z,98963.19
2022-11-01T02:51:40.473Z,98978.97
2022-11-01T02:54:08.493Z,98969.03
2022-11-01T02:56:35.742Z,98968.63
2022-11-01T02:59:02.579Z,98970.97
2022-11-01T03:01:34.521Z,98968.22
2022-11-01T03:04:02.291Z,98969.38
2022-11-01T03:06:41.583Z,98978.47
2022-11-01T03:09:12.202Z,98962.28
2022-11-01T03:12:02.594Z,98954.81
2022-11-01T03:14:48.665Z,98950.13
2022-11-01T03:17:25.638Z,98947.41
2022-11-01T03:19:58.162Z,98965.59
2022-11-01T03:22:46.336Z,98958.97
2022-11-01T03:25:44.522Z,98961.72
2022-11-01T03:28:21.514Z,98956.66
2022-11-01T03:30:56.768Z,98958.25
2022-11-01T03:33:25.670Z,98969.75
2022-11-01T03:35:56.317Z,98961.47
2022-11-01T03:38:29.138Z,98952.44
2022-11-01T03:41:00.605Z,98969.00
2022-11-01T03:43:30.200Z,98974.53
2022-11-01T03:45:57.133Z,98976.19
2022-11-01T03:48:23.802Z,98963.56
2022-11-01T03:50:52.441Z,98966.34
2022-11-01T03:53:19.610Z,98972.69
2022-11-01T03:55:46.203Z,98977.84
2022-11-01T03:58:12.975Z,98974.69
2022-11-01T04:00:42.642Z,98973.88
2022-11-01T04:03:11.142Z,98973.13
2022-11-01T04:05:40.545Z,98971.97
2022-11-01T04:08:08.829Z,98970.75
2022-11-01T04:10:35.814Z,98972.38
2022-11-01T04:13:03.504Z,98955.75
2022-11-01T04:15:48.846Z,98962.06
2022-11-01T04:18:34.965Z,98939.56
2022-11-01T04:21:06.007Z,98936.34
2022-11-01T04:23:33.671Z,98940.69
2022-11-01T04:26:00.523Z,98950.88
2022-11-01T04:28:27.229Z,98944.59
2022-11-01T04:30:54.446Z,98925.63
2022-11-01T04:33:21.114Z,98928.78
2022-11-01T04:35:47.932Z,98937.06
2022-11-01T04:38:14.805Z,98941.84
2022-11-01T04:40:42.673Z,98948.91
2022-11-01T04:43:10.476Z,98930.34
2022-11-01T04:45:37.093Z,98929.50
2022-11-01T04:48:16.985Z,98938.97
2022-11-01T04:50:45.528Z,98944.50
2022-11-01T04:53:12.408Z,98941.31
2022-11-01T04:55:39.249Z,98932.59
2022-11-01T04:58:06.786Z,98936.53
2022-11-01T05:00:34.028Z,98934.56
2022-11-01T05:03:06.079Z,98934.13
2022-11-01T05:05:33.191Z,98932.56
2022-11-01T05:10:34.684Z,98934.88
2022-11-01T05:13:02.520Z,98938.78
2022-11-01T05:15:29.469Z,98927.75
2022-11-01T05:17:56.618Z,98928.94
2022-11-01T05:20:23.795Z,98933.72
2022-11-01T05:22:50.450Z,98934.13
2022-11-01T05:25:18.183Z,98931.78
2022-11-01T05:27:44.821Z,98934.16
2022-11-01T05:30:12.098Z,98938.88
2022-11-01T05:32:38.697Z,98942.84
2022-11-01T05:35:06.312Z,98943.59
2022-11-01T05:37:33.178Z,98959.78
2022-11-01T05:39:59.815Z,98945.16
2022-11-01T05:42:26.522Z,98964.09
2022-11-01T05:44:53.208Z,98963.28
2022-11-01T05:47:19.849Z,98958.50
2022-11-01T05:49:46.434Z,98954.56
2022-11-01T05:52:13.062Z,98959.66
2022-11-01T05:54:39.646Z,98959.25
2022-11-01T05:57:06.304Z,98961.16
2022-11-01T05:59:32.914Z,98958.00
2022-11-01T06:01:59.806Z,98945.38
2022-11-01T06:04:26.509Z,98942.63
2022-11-01T06:06:53.145Z,98937.09
2022-11-01T06:09:22.402Z,98927.22
2022-11-01T06:11:49.087Z,98928.03
2022-11-01T06:14:15.772Z,98934.72
2022-11-01T06:16:44.467Z,98927.22
2022-11-01T06:19:11.149Z,98943.38
2022-11-01T06:21:37.839Z,98940.22
2022-11-01T06:24:04.670Z,98933.09
2022-11-01T06:26:32.287Z,98925.97
2022-11-01T06:29:02.769Z,98935.81
2022-11-01T06:31:29.667Z,98949.59
2022-11-01T06:33:56.333Z,98945.28
2022-11-01T06:36:23.363Z,98944.47
2022-11-01T06:38:50.076Z,98952.34
2022-11-01T06:41:16.987Z,98954.66
2022-11-01T06:43:43.608Z,98962.94
2022-11-01T06:46:10.280Z,98969.66
2022-11-01T06:48:36.908Z,98960.19
2022-11-01T06:51:04.886Z,98968.84
2022-11-01T06:53:31.582Z,98975.59
2022-11-01T06:55:59.973Z,98977.53
2022-11-01T06:58:27.632Z,98983.44
2022-11-01T07:00:54.344Z,99000.00
2022-11-01T07:03:21.096Z,98999.56
2022-11-01T07:05:49.586Z,99015.72
2022-11-01T07:08:16.416Z,99018.88
2022-11-01T07:10:43.908Z,99016.91
2022-11-01T07:13:13.370Z,99029.91
2022-11-01T07:15:40.455Z,99026.38
2022-11-01T07:18:10.601Z,99038.97
2022-11-01T07:20:44.144Z,99024.38
2022-11-01T07:23:15.714Z,99024.72
2022-11-01T07:25:43.279Z,99028.69
2022-11-01T07:28:10.785Z,99045.59
2022-11-01T07:30:37.629Z,99046.38
2022-11-01T07:33:05.737Z,99055.84
2022-11-01T07:35:32.822Z,99059.78
2022-11-01T07:38:02.744Z,99058.16
2022-11-01T07:40:31.915Z,99070.00
2022-11-01T07:43:00.271Z,99067.63
2022-11-01T07:45:28.989Z,99066.44
2022-11-01T07:48:10.274Z,99075.53
2022-11-01T07:50:38.229Z,99082.25
2022-11-01T07:53:04.760Z,99097.66
2022-11-01T07:55:31.904Z,99093.34
2022-11-01T07:57:58.674Z,99095.72
2022-11-01T08:00:25.534Z,99096.16
2022-11-01T08:02:52.336Z,99091.06
2022-11-01T08:05:19.033Z,99089.13
2022-11-01T08:07:45.776Z,99098.28
2022-11-01T08:10:13.456Z,99104.63
2022-11-01T08:12:40.061Z,99101.50
2022-11-01T08:15:07.238Z,99103.88
2022-11-01T08:17:34.701Z,99116.94
2022-11-01T08:20:04.280Z,99121.72
2022-11-01T08:22:30.975Z,99143.06
2022-11-01T08:24:57.563Z,99140.72
2022-11-01T08:27:24.201Z,99144.75
2022-11-01T08:29:50.832Z,99157.78
2022-11-01T08:32:21.828Z,99162.13
2022-11-01T08:34:49.077Z,99158.69
2022-11-01T08:37:15.749Z,99155.94
2022-11-01T08:39:42.398Z,99156.81
2022-11-01T08:42:09.545Z,99153.28
2022-11-01T08:44:36.232Z,99161.25
2022-11-01T08:47:02.928Z,99169.56
2022-11-01T08:49:29.583Z,99180.66
2022-11-01T08:51:56.344Z,99187.00
2022-11-01T08:54:23.189Z,99183.84
2022-11-01T08:56:49.822Z,99193.72
2022-11-01T08:59:16.620Z,99189.78
2022-11-01T09:01:43.340Z,99198.88
2022-11-01T09:04:10.221Z,99185.47
2022-11-01T09:06:36.812Z,99194.13
2022-11-01T09:09:04.481Z,99179.94
2022-11-01T09:11:31.162Z,99191.44
2022-11-01T09:13:58.061Z,99183.94
2022-11-01T09:16:25.063Z,99193.44
2022-11-01T09:18:51.868Z,99197.41
2022-11-01T09:21:18.615Z,99199.00
2022-11-01T09:23:46.454Z,99202.56
2022-11-01T09:26:13.424Z,99207.69
2022-11-01T09:28:40.613Z,99213.22
2022-11-01T09:31:20.201Z,99214.81
2022-11-01T09:33:47.908Z,99216.44
2022-11-01T09:36:14.566Z,99212.47
2022-11-01T09:38:41.171Z,99222.38
2022-11-01T09:41:35.522Z,99222.78
2022-11-01T09:44:04.737Z,99230.75
2022-11-01T09:46:40.154Z,99215.75
2022-11-01T09:49:07.384Z,99221.34
2022-11-01T09:51:34.051Z,99225.31
2022-11-01T09:54:04.441Z,99218.22
2022-11-01T09:56:52.947Z,99216.25
2022-11-01T09:59:19.854Z,99218.25
2022-11-01T10:02:09.756Z,99219.47
2022-11-01T10:05:04.091Z,99227.81
2022-11-01T10:07:33.747Z,99229.81
2022-11-01T10:10:19.247Z,99231.78
2022-11-01T10:12:59.355Z,99221.94
2022-11-01T10:15:34.701Z,99220.78
2022-11-01T10:18:20.251Z,99219.63
2022-11-01T10:20:47.664Z,99209.81
2022-11-01T10:23:17.427Z,99217.34
2022-11-01T10:25:51.354Z,99209.88
2022-11-01T10:28:32.627Z,99216.66
2022-11-01T10:31:06.684Z,99226.22
2022-11-01T10:33:41.640Z,99217.16
2022-11-01T10:36:18.570Z,99217.16
2022-11-01T10:39:37.287Z,99217.22
2022-11-01T10:41:51.177Z,99229.88
2022-11-01T10:44:34.455Z,99229.50
2022-11-01T10:47:05.033Z,99229.91
2022-11-01T10:52:30.724Z,99233.06
2022-11-01T10:54:59.642Z,99226.72
2022-11-01T10:57:39.509Z,99238.97
2022-11-01T11:00:15.295Z,99238.59
2022-11-01T11:03:04.839Z,99259.56
2022-11-01T11:05:33.251Z,99258.38
2022-11-01T11:08:03.686Z,99253.25
2022-11-01T11:10:30.735Z,99252.06
2022-11-01T11:13:02.903Z,99252.47
2022-11-01T11:15:43.184Z,99247.00
2022-11-01T11:18:28.020Z,99243.84
2022-11-01T11:21:02.050Z,99253.75
2022-11-01T11:23:31.042Z,99247.84
2022-11-01T11:26:09.819Z,99239.59
2022-11-01T11:28:44.211Z,99251.09
2022-11-01T11:31:26.016Z,99250.75
2022-11-01T11:33:56.775Z,99243.66
2022-11-01T11:36:40.927Z,99249.28
2022-11-01T11:39:23.338Z,99250.91
2022-11-01T11:41:50.038Z,99237.91
2022-11-01T11:44:34.584Z,99247.91
2022-11-01T11:47:03.156Z,99257.84
2022-11-01T11:49:29.909Z,99242.47
2022-11-01T11:51:56.602Z,99246.06
2022-11-01T11:54:43.185Z,99250.47
2022-11-01T11:57:24.995Z,99242.59
2022-11-01T11:59:55.253Z,99240.25
2022-11-01T12:02:28.567Z,99234.75
2022-11-01T12:05:03.726Z,99234.00
2022-11-01T12:07:57.951Z,99230.88
2022-11-01T12:10:45.493Z,99225.34
2022-11-01T12:13:33.664Z,99227.75
2022-11-01T12:16:09.658Z,99211.53
2022-11-01T12:19:03.831Z,99220.25
2022-11-01T12:21:36.732Z,99222.25
2022-11-01T12:24:26.987Z,99223.47
2022-11-01T12:27:02.633Z,99223.47
2022-11-01T12:29:44.983Z,99213.56
2022-11-01T12:32:15.366Z,99211.97
2022-11-01T12:34:44.276Z,99211.97
2022-11-01T12:37:16.061Z,99201.66
2022-11-01T12:40:23.489Z,99201.31
2022-11-01T12:42:55.105Z,99201.69
2022-11-01T12:45:24.731Z,99209.59
2022-11-01T12:47:58.473Z,99210.00
2022-11-01T12:50:33.172Z,99212.00
2022-11-01T12:53:13.199Z,99208.03
2022-11-01T12:55:42.094Z,99206.03
2022-11-01T12:58:16.124Z,99198.53
2022-11-01T13:01:01.301Z,99194.56
2022-11-01T13:04:06.059Z,99200.91
2022-11-01T13:06:32.587Z,99201.31
2022-11-01T13:09:07.557Z,99210.03
2022-11-01T13:11:46.733Z,99206.06
2022-11-01T13:14:44.036Z,99207.66
2022-11-01T13:17:27.204Z,99197.34
2022-11-01T13:20:23.368Z,99209.66
2022-11-01T13:22:56.124Z,99206.44
2022-11-01T13:25:31.191Z,99202.50
2022-11-01T13:28:13.929Z,99197.75
2022-11-01T13:30:50.146Z,99195.75
2022-11-01T13:33:43.449Z,99197.31
2022-11-01T13:36:36.785Z,99199.28
2022-11-01T13:39:40.970Z,99202.47
2022-11-01T13:42:29.048Z,99200.88
2022-11-01T13:45:07.808Z,99196.13
2022-11-01T13:48:14.449Z,99194.94
2022-11-01T13:51:12.964Z,99188.19
2022-11-01T13:53:58.912Z,99193.72
2022-11-01T13:56:37.117Z,99196.91
2022-11-01T13:59:13.710Z,99192.16
2022-11-01T14:01:40.790Z,99202.84
2022-11-01T14:04:35.093Z,99194.13
2022-11-01T14:07:10.891Z,99198.06
2022-11-01T14:09:43.629Z,99192.13
2022-11-01T14:12:29.275Z,99197.66
2022-11-01T14:15:22.815Z,99198.47
2022-11-01T14:18:07.623Z,99202.00
2022-11-01T14:20:54.236Z,99197.63
2022-11-01T14:23:30.105Z,99207.94
2022-11-01T14:26:21.431Z,99207.88
2022-11-01T14:28:50.005Z,99204.72
2022-11-01T14:31:19.910Z,99200.34
2022-11-01T14:33:48.434Z,99211.88
2022-11-01T14:36:17.951Z,99200.75
2022-11-01T14:39:22.463Z,99209.47
2022-11-01T14:41:55.991Z,99195.59
2022-11-01T14:44:31.300Z,99207.47
2022-11-01T14:47:02.012Z,99200.75
2022-11-01T14:49:40.845Z,99205.50
2022-11-01T14:52:22.579Z,99203.53
2022-11-01T14:55:05.850Z,99207.88
2022-11-01T14:57:34.705Z,99215.03
2022-11-01T15:00:20.931Z,99213.81
2022-11-01T15:02:47.734Z,99207.88
2022-11-01T15:05:16.804Z,99202.31
2022-11-01T15:07:48.777Z,99202.31
2022-11-01T15:10:15.464Z,99205.50
2022-11-01T15:13:01.686Z,99202.31
2022-11-01T15:15:37.494Z,99205.88
2022-11-01T15:18:20.406Z,99209.03
2022-11-01T15:20:50.446Z,99202.22
2022-11-01T15:23:27.016Z,99208.16
2022-11-01T15:25:56.461Z,99216.84
2022-11-01T15:28:27.012Z,99225.94
2022-11-01T15:30:56.780Z,99225.91
2022-11-01T15:33:28.182Z,99222.72
2022-11-01T15:35:59.314Z,99221.91
2022-11-01T15:38:27.310Z,99218.72
2022-11-01T15:40:54.528Z,99224.28
2022-11-01T15:43:24.062Z,99222.66
2022-11-01T15:45:59.411Z,99226.63
2022-11-01T15:48:30.838Z,99226.59
2022-11-01T15:51:01.029Z,99228.16
2022-11-01T15:53:32.653Z,99233.69
2022-11-01T15:56:15.233Z,99234.47
2022-11-01T16:01:26.548Z,99231.31
2022-11-01T16:04:04.991Z,99242.00
2022-11-01T16:06:40.942Z,99244.78
2022-11-01T16:09:44.529Z,99245.53
2022-11-01T16:12:21.640Z,99251.06
2022-11-01T16:15:18.008Z,99258.19
2022-11-01T16:17:44.949Z,99262.94
2022-11-01T16:21:00.541Z,99257.31
2022-11-01T16:23:32.536Z,99269.09
2022-11-01T16:26:04.133Z,99269.47
2022-11-01T16:28:38.756Z,99275.75
2022-11-01T16:31:22.824Z,99278.06
2022-11-01T16:33:49.716Z,99288.66
2022-11-01T16:36:19.402Z,99289.41
2022-11-01T16:38:47.339Z,99301.25
2022-11-01T16:41:24.320Z,99297.22
2022-11-01T16:43:56.388Z,99306.66
2022-11-01T16:46:24.971Z,99312.13
2022-11-01T16:48:54.561Z,99320.38
2022-11-01T16:51:24.962Z,99332.59
2022-11-01T16:53:51.634Z,99337.66
2022-11-01T16:56:36.241Z,99341.53
2022-11-01T16:59:35.847Z,99346.25
2022-11-01T17:02:15.318Z,99346.16
2022-11-01T17:04:42.763Z,99356.38
2022-11-01T17:07:12.028Z,99355.88
2022-11-01T17:09:39.717Z,99355.41
2022-11-01T17:12:07.724Z,99355.72
2022-11-01T17:14:38.047Z,99364.00
2022-11-01T17:17:10.741Z,99360.44
2022-11-01T17:19:41.061Z,99364.34
2022-11-01T17:22:20.788Z,99360.31
2022-11-01T17:24:47.809Z,99376.13
2022-11-01T17:27:15.694Z,99368.25
2022-11-01T17:29:43.130Z,99373.78
2022-11-01T17:32:11.408Z,99376.91
2022-11-01T17:34:38.985Z,99383.19
2022-11-01T17:37:06.446Z,99377.66
2022-11-01T17:39:34.653Z,99388.28
2022-11-01T17:42:01.288Z,99385.50
2022-11-01T17:44:27.967Z,99392.66
2022-11-01T17:46:54.652Z,99394.69
2022-11-01T17:49:23.724Z,99399.78
2022-11-01T17:51:54.776Z,99404.13
2022-11-01T17:54:22.915Z,99405.31
2022-11-01T17:56:51.213Z,99411.59
2022-11-01T17:59:18.107Z,99421.78
2022-11-01T18:01:45.160Z,99421.78
2022-11-01T18:04:11.964Z,99428.47
2022-11-01T18:06:40.681Z,99432.81
2022-11-01T18:09:19.906Z,99435.91
2022-11-01T18:11:58.751Z,99441.00
2022-11-01T18:14:47.074Z,99452.41
2022-11-01T18:17:41.085Z,99459.13
2022-11-01T18:20:14.524Z,99458.72
2022-11-01T18:22:53.106Z,99463.78
2022-11-01T18:25:26.073Z,99477.56
2022-11-01T18:27:55.269Z,99479.84
2022-11-01T18:30:22.095Z,99486.44
2022-11-01T18:32:57.876Z,99486.81
2022-11-01T18:35:40.374Z,99496.66
2022-11-01T18:38:07.153Z,99502.91
2022-11-01T18:40:56.200Z,99506.03
2022-11-01T18:43:23.634Z,99517.44
2022-11-01T18:46:19.178Z,99528.06
2022-11-01T18:48:37.569Z,99532.28
2022-11-01T18:51:16.264Z,99531.44
2022-11-01T18:53:44.455Z,99534.53
2022-11-01T18:56:18.312Z,99547.13
2022-11-01T18:58:45.029Z,99550.19
2022-11-01T19:01:14.821Z,99556.09
2022-11-01T19:03:42.282Z,99561.09
2022-11-01T19:06:22.248Z,99565.38
2022-11-01T19:08:56.007Z,99568.06
2022-11-01T19:11:23.499Z,99568.78
2022-11-01T19:13:50.752Z,99575.84
2022-11-01T19:16:19.457Z,99582.03
2022-11-01T19:18:48.132Z,99571.69
2022-11-01T19:21:17.625Z,99565.38
2022-11-01T19:23:50.065Z,99569.22
2022-11-01T19:26:27.911Z,99566.75
2022-11-01T19:28:58.921Z,99576.09
2022-11-01T19:31:30.500Z,99594.47
2022-11-01T19:34:00.098Z,99600.97
2022-11-01T19:36:36.765Z,99603.22
2022-11-01T19:39:14.122Z,99602.25
2022-11-01T19:41:41.016Z,99596.69
2022-11-01T19:44:18.410Z,99588.31
2022-11-01T19:46:45.020Z,99597.28
2022-11-01T19:49:25.923Z,99590.19
2022-11-01T19:52:12.202Z,99594.91
2022-11-01T19:54:41.604Z,99586.97
2022-11-01T19:57:26.521Z,99601.94
2022-11-01T19:59:58.026Z,99616.88
2022-11-01T20:02:25.111Z,99618.03
2022-11-01T20:04:57.569Z,99617.69
2022-11-01T20:07:26.968Z,99632.19
2022-11-01T20:09:58.584Z,99632.41
2022-11-01T20:12:25.503Z,99633.94
2022-11-01T20:14:52.184Z,99629.50
2022-11-01T20:17:18.782Z,99638.47
2022-11-01T20:19:45.465Z,99642.03
2022-11-01T20:22:12.300Z,99639.53
2022-11-01T20:24:38.927Z,99651.72
2022-11-01T20:27:05.787Z,99649.22
2022-11-01T20:29:32.387Z,99652.69
2022-11-01T20:31:59.056Z,99661.66
2022-11-01T20:34:27.239Z,99665.13
2022-11-01T20:37:27.398Z,99668.25
2022-11-01T20:39:40.544Z,99669.28
2022-11-01T20:42:08.073Z,99671.59
2022-11-01T20:44:34.724Z,99674.28
2022-11-01T20:47:01.334Z,99678.16
2022-11-01T20:49:28.003Z,99686.34
2022-11-01T20:51:57.673Z,99691.41
2022-11-01T20:54:31.265Z,99692.09
2022-11-01T20:56:57.921Z,99697.88
2022-11-01T20:59:24.815Z,99695.47
2022-11-01T21:01:51.756Z,99722.22
2022-11-01T21:04:19.412Z,99716.59
2022-11-01T21:06:46.390Z,99724.41
2022-11-01T21:09:37.495Z,99729.00
2022-11-01T21:12:27.373Z,99732.13
2022-11-01T21:14:55.009Z,99752.53
2022-11-01T21:17:21.611Z,99753.69
2022-11-01T21:19:57.254Z,99763.56
2022-11-01T21:22:24.097Z,99755.66
2022-11-01T21:24:51.466Z,99761.16
2022-11-01T21:30:14.932Z,99762.66
2022-11-01T21:32:45.005Z,99769.66
2022-11-01T21:35:21.115Z,99772.75
2022-11-01T21:37:50.758Z,99781.81
2022-11-01T21:40:29.325Z,99776.66
2022-11-01T21:42:57.478Z,99786.88
2022-11-01T21:45:31.569Z,99788.38
2022-11-01T21:48:02.687Z,99801.00
2022-11-01T21:50:29.691Z,99807.28
2022-11-01T21:52:56.302Z,99804.91
2022-11-01T21:55:22.911Z,99815.09
2022-11-01T21:57:49.573Z,99826.13
2022-11-01T22:00:16.556Z,99827.63
2022-11-01T22:02:43.304Z,99833.47
2022-11-01T22:05:10.609Z,99830.72
2022-11-01T22:07:37.202Z,99847.34
2022-11-01T22:10:04.312Z,99838.75
2022-11-01T22:12:30.917Z,99842.63
2022-11-01T22:14:57.515Z,99849.66
2022-11-01T22:17:24.197Z,99854.69
2022-11-01T22:19:50.797Z,99853.09
2022-11-01T22:22:17.450Z,99859.41
2022-11-01T22:24:44.739Z,99857.44
2022-11-01T22:27:11.353Z,99855.84
2022-11-01T22:29:37.935Z,99855.84
2022-11-01T22:32:04.709Z,99854.25
2022-11-01T22:34:31.366Z,99847.13
2022-11-01T22:36:58.165Z,99851.00
2022-11-01T22:39:26.883Z,99854.94
2022-11-01T22:41:54.556Z,99856.44
2022-11-01T22:44:30.857Z,99858.00
2022-11-01T22:47:01.065Z,99870.53
2022-11-01T22:49:33.851Z,99872.00
2022-11-01T22:52:05.289Z,99871.19
2022-11-01T22:54:47.724Z,99871.09
2022-11-01T22:57:14.202Z,99878.56
2022-11-01T23:00:22.808Z,99882.44
2022-11-01T23:02:49.615Z,99887.50
2022-11-01T23:05:26.144Z,99893.81
2022-11-01T23:07:55.663Z,99889.94
2022-11-01T23:10:27.284Z,99898.19
2022-11-01T23:13:45.275Z,99904.00
2022-11-01T23:16:24.668Z,99898.50
2022-11-01T23:18:53.400Z,99904.00
2022-11-01T23:21:21.626Z,99901.63
2022-11-01T23:23:48.949Z,99909.06
2022-11-01T23:26:17.704Z,99911.00
2022-11-01T23:28:52.978Z,99903.09
2022-11-01T23:31:20.835Z,99912.94
2022-11-01T23:33:49.035Z,99924.78
2022-11-01T23:36:30.497Z,99933.84
2022-11-01T23:39:03.222Z,99936.59
2022-11-01T23:41:53.684Z,99945.97
2022-11-01T23:44:29.122Z,99942.91
2022-11-01T23:47:19.787Z,99949.19
2022-11-01T23:49:49.509Z,99958.63
2022-11-01T23:52:31.015Z,99954.25
2022-11-01T23:54:57.934Z,99962.84
2022-11-01T23:57:24.712Z,99964.78
2022-11-01T23:59:52.113Z,99970.66
